sensor_id;sensor_type;location;lat;lon;timestamp;P1;durP1;ratioP1;P2;durP2;ratioP2
10491;SDS011;5293;51.464;-2.566;2022-09-09T00:10:15;12.50;;;6.70;;
10491;SDS011;5293;51.464;-2.566;2022-09-09T00:13:09;9.70;;;5.77;;
10491;SDS011;5293;51.464;-2.566;2022-09-09T00:18:27;12.00;;;5.47;;
10491;SDS011;5293;51.464;-2.566;2022-09-09T00:21:08;9.97;;;6.07;;
10491;SDS011;5293;51.464;-2.566;2022-09-09T00:23:43;8.23;;;5.53;;
10491;SDS011;5293;51.464;-2.566;2022-09-09T00:31:50;8.40;;;4.57;;
10491;SDS011;5293;51.464;-2.566;2022-09-09T00:34:23;6.20;;;4.50;;
10491;SDS011;5293;51.464;-2.566;2022-09-09T00:36:52;10.47;;;4.07;;
10491;SDS011;5293;51.464;-2.566;2022-09-09T00:39:25;9.90;;;3.33;;
10491;SDS011;5293;51.464;-2.566;2022-09-09T00:42:02;7.37;;;3.13;;
10491;SDS011;5293;51.464;-2.566;2022-09-09T00:44:34;4.43;;;3.13;;
10491;SDS011;5293;51.464;-2.566;2022-09-09T00:47:23;4.40;;;2.87;;
10491;SDS011;5293;51.464;-2.566;2022-09-09T00:58:30;2.83;;;2.30;;
10491;SDS011;5293;51.464;-2.566;2022-09-09T01:00:58;4.07;;;2.57;;
10491;SDS011;5293;51.464;-2.566;2022-09-09T01:03:37;4.33;;;2.10;;
10491;SDS011;5293;51.464;-2.566;2022-09-09T01:17:04;3.57;;;2.63;;
10491;SDS011;5293;51.464;-2.566;2022-09-09T01:27:57;6.03;;;2.67;;
10491;SDS011;5293;51.464;-2.566;2022-09-09T01:30:25;4.73;;;2.67;;
10491;SDS011;5293;51.464;-2.566;2022-09-09T01:32:56;3.27;;;2.50;;
10491;SDS011;5293;51.464;-2.566;2022-09-09T01:35:32;3.80;;;2.47;;
10491;SDS011;5293;51.464;-2.566;2022-09-09T01:38:03;3.50;;;2.53;;
10491;SDS011;5293;51.464;-2.566;2022-09-09T01:40:30;4.30;;;2.17;;
10491;SDS011;5293;51.464;-2.566;2022-09-09T01:42:55;3.07;;;2.30;;
10491;SDS011;5293;51.464;-2.566;2022-09-09T01:45:21;4.37;;;2.23;;
10491;SDS011;5293;51.464;-2.566;2022-09-09T01:47:48;6.00;;;2.30;;
10491;SDS011;5293;51.464;-2.566;2022-09-09T01:50:16;2.67;;;2.00;;
10491;SDS011;5293;51.464;-2.566;2022-09-09T01:52:43;2.50;;;2.30;;
10491;SDS011;5293;51.464;-2.566;2022-09-09T01:55:12;3.90;;;2.30;;
10491;SDS011;5293;51.464;-2.566;2022-09-09T02:00:08;2.30;;;1.73;;
10491;SDS011;5293;51.464;-2.566;2022-09-09T02:02:49;2.80;;;2.07;;
10491;SDS011;5293;51.464;-2.566;2022-09-09T02:07:57;3.60;;;2.03;;
10491;SDS011;5293;51.464;-2.566;2022-09-09T02:10:32;3.07;;;2.17;;
10491;SDS011;5293;51.464;-2.566;2022-09-09T02:13:10;4.17;;;2.47;;
10491;SDS011;5293;51.464;-2.566;2022-09-09T02:15:42;3.13;;;2.23;;
10491;SDS011;5293;51.464;-2.566;2022-09-09T02:18:27;3.90;;;2.40;;
10491;SDS011;5293;51.464;-2.566;2022-09-09T02:21:00;9.57;;;2.43;;
10491;SDS011;5293;51.464;-2.566;2022-09-09T02:23:27;4.63;;;3.00;;
10491;SDS011;5293;51.464;-2.566;2022-09-09T02:25:54;3.93;;;2.20;;
10491;SDS011;5293;51.464;-2.566;2022-09-09T02:28:22;7.27;;;2.60;;
10491;SDS011;5293;51.464;-2.566;2022-09-09T02:30:51;6.30;;;2.30;;
10491;SDS011;5293;51.464;-2.566;2022-09-09T02:33:20;8.20;;;2.47;;
10491;SDS011;5293;51.464;-2.566;2022-09-09T02:35:49;4.13;;;2.10;;
10491;SDS011;5293;51.464;-2.566;2022-09-09T02:38:17;6.10;;;2.30;;
10491;SDS011;5293;51.464;-2.566;2022-09-09T02:40:47;7.20;;;1.90;;
10491;SDS011;5293;51.464;-2.566;2022-09-09T02:43:14;4.90;;;1.70;;
10491;SDS011;5293;51.464;-2.566;2022-09-09T02:45:42;9.17;;;2.40;;
10491;SDS011;5293;51.464;-2.566;2022-09-09T02:53:50;5.80;;;2.03;;
10491;SDS011;5293;51.464;-2.566;2022-09-09T02:56:27;3.60;;;2.40;;
10491;SDS011;5293;51.464;-2.566;2022-09-09T02:58:58;4.50;;;2.27;;
10491;SDS011;5293;51.464;-2.566;2022-09-09T03:01:24;2.27;;;2.07;;
10491;SDS011;5293;51.464;-2.566;2022-09-09T03:03:50;4.53;;;2.30;;
10491;SDS011;5293;51.464;-2.566;2022-09-09T03:06:16;3.17;;;1.97;;
10491;SDS011;5293;51.464;-2.566;2022-09-09T03:08:41;4.50;;;2.07;;
10491;SDS011;5293;51.464;-2.566;2022-09-09T03:11:12;5.27;;;1.97;;
10491;SDS011;5293;51.464;-2.566;2022-09-09T03:13:39;3.67;;;2.10;;
10491;SDS011;5293;51.464;-2.566;2022-09-09T03:16:04;8.30;;;1.80;;
10491;SDS011;5293;51.464;-2.566;2022-09-09T03:18:30;4.50;;;1.93;;
10491;SDS011;5293;51.464;-2.566;2022-09-09T03:20:57;4.70;;;2.30;;
10491;SDS011;5293;51.464;-2.566;2022-09-09T03:23:24;3.30;;;1.80;;
10491;SDS011;5293;51.464;-2.566;2022-09-09T03:25:50;2.80;;;1.90;;
10491;SDS011;5293;51.464;-2.566;2022-09-09T03:28:17;2.60;;;1.90;;
10491;SDS011;5293;51.464;-2.566;2022-09-09T03:30:42;2.80;;;1.67;;
10491;SDS011;5293;51.464;-2.566;2022-09-09T03:33:08;4.30;;;2.00;;
10491;SDS011;5293;51.464;-2.566;2022-09-09T03:35:34;2.40;;;1.50;;
10491;SDS011;5293;51.464;-2.566;2022-09-09T03:38:00;3.10;;;2.10;;
10491;SDS011;5293;51.464;-2.566;2022-09-09T03:40:26;2.07;;;1.83;;
10491;SDS011;5293;51.464;-2.566;2022-09-09T03:42:52;5.83;;;1.90;;
10491;SDS011;5293;51.464;-2.566;2022-09-09T03:45:17;2.53;;;1.80;;
10491;SDS011;5293;51.464;-2.566;2022-09-09T03:47:43;3.13;;;1.90;;
10491;SDS011;5293;51.464;-2.566;2022-09-09T03:50:09;2.07;;;1.90;;
10491;SDS011;5293;51.464;-2.566;2022-09-09T03:52:38;2.67;;;1.60;;
10491;SDS011;5293;51.464;-2.566;2022-09-09T03:55:06;3.90;;;1.60;;
10491;SDS011;5293;51.464;-2.566;2022-09-09T03:57:32;4.20;;;1.77;;
10491;SDS011;5293;51.464;-2.566;2022-09-09T04:00:00;3.00;;;1.90;;
10491;SDS011;5293;51.464;-2.566;2022-09-09T04:02:30;3.70;;;2.13;;
10491;SDS011;5293;51.464;-2.566;2022-09-09T04:04:56;4.17;;;2.00;;
10491;SDS011;5293;51.464;-2.566;2022-09-09T04:07:22;3.90;;;2.10;;
10491;SDS011;5293;51.464;-2.566;2022-09-09T04:09:47;4.03;;;1.63;;
10491;SDS011;5293;51.464;-2.566;2022-09-09T04:12:13;4.27;;;2.13;;
10491;SDS011;5293;51.464;-2.566;2022-09-09T04:14:39;4.43;;;1.80;;
10491;SDS011;5293;51.464;-2.566;2022-09-09T04:17:04;2.57;;;1.57;;
10491;SDS011;5293;51.464;-2.566;2022-09-09T04:19:31;2.00;;;1.53;;
10491;SDS011;5293;51.464;-2.566;2022-09-09T04:21:57;3.30;;;1.80;;
10491;SDS011;5293;51.464;-2.566;2022-09-09T04:24:23;2.37;;;1.73;;
10491;SDS011;5293;51.464;-2.566;2022-09-09T04:26:49;4.27;;;1.70;;
10491;SDS011;5293;51.464;-2.566;2022-09-09T04:29:15;2.40;;;1.67;;
10491;SDS011;5293;51.464;-2.566;2022-09-09T04:31:41;4.57;;;1.80;;
10491;SDS011;5293;51.464;-2.566;2022-09-09T04:34:08;1.50;;;1.40;;
10491;SDS011;5293;51.464;-2.566;2022-09-09T04:36:34;2.37;;;1.40;;
10491;SDS011;5293;51.464;-2.566;2022-09-09T04:39:01;4.47;;;1.40;;
10491;SDS011;5293;51.464;-2.566;2022-09-09T04:41:27;2.17;;;1.80;;
10491;SDS011;5293;51.464;-2.566;2022-09-09T04:43:53;3.17;;;1.67;;
10491;SDS011;5293;51.464;-2.566;2022-09-09T04:46:20;2.23;;;1.30;;
10491;SDS011;5293;51.464;-2.566;2022-09-09T04:48:48;2.00;;;1.30;;
10491;SDS011;5293;51.464;-2.566;2022-09-09T04:51:14;4.37;;;2.00;;
10491;SDS011;5293;51.464;-2.566;2022-09-09T04:53:40;3.13;;;1.50;;
10491;SDS011;5293;51.464;-2.566;2022-09-09T04:56:10;3.77;;;1.97;;
10491;SDS011;5293;51.464;-2.566;2022-09-09T04:58:37;2.07;;;1.40;;
10491;SDS011;5293;51.464;-2.566;2022-09-09T05:01:08;3.43;;;1.37;;
10491;SDS011;5293;51.464;-2.566;2022-09-09T05:03:35;4.20;;;1.13;;
10491;SDS011;5293;51.464;-2.566;2022-09-09T05:06:06;5.20;;;1.23;;
10491;SDS011;5293;51.464;-2.566;2022-09-09T05:08:34;1.27;;;0.97;;
10491;SDS011;5293;51.464;-2.566;2022-09-09T05:11:04;2.07;;;1.33;;
10491;SDS011;5293;51.464;-2.566;2022-09-09T05:13:44;4.50;;;1.20;;
10491;SDS011;5293;51.464;-2.566;2022-09-09T05:16:10;3.03;;;1.57;;
10491;SDS011;5293;51.464;-2.566;2022-09-09T05:18:36;2.93;;;1.07;;
10491;SDS011;5293;51.464;-2.566;2022-09-09T05:21:02;3.23;;;1.40;;
10491;SDS011;5293;51.464;-2.566;2022-09-09T05:23:28;1.33;;;1.00;;
10491;SDS011;5293;51.464;-2.566;2022-09-09T05:25:57;3.90;;;1.43;;
10491;SDS011;5293;51.464;-2.566;2022-09-09T05:28:26;2.30;;;1.50;;
10491;SDS011;5293;51.464;-2.566;2022-09-09T05:30:59;5.20;;;1.57;;
10491;SDS011;5293;51.464;-2.566;2022-09-09T05:33:29;3.77;;;1.10;;
10491;SDS011;5293;51.464;-2.566;2022-09-09T05:36:02;2.87;;;1.57;;
10491;SDS011;5293;51.464;-2.566;2022-09-09T05:38:30;4.40;;;1.40;;
10491;SDS011;5293;51.464;-2.566;2022-09-09T05:40:57;3.30;;;1.30;;
10491;SDS011;5293;51.464;-2.566;2022-09-09T05:43:24;3.97;;;1.30;;
10491;SDS011;5293;51.464;-2.566;2022-09-09T05:45:59;2.10;;;1.20;;
10491;SDS011;5293;51.464;-2.566;2022-09-09T05:48:30;6.10;;;1.57;;
10491;SDS011;5293;51.464;-2.566;2022-09-09T05:50:57;4.23;;;1.40;;
10491;SDS011;5293;51.464;-2.566;2022-09-09T05:53:24;3.37;;;1.20;;
10491;SDS011;5293;51.464;-2.566;2022-09-09T05:55:50;6.40;;;1.33;;
10491;SDS011;5293;51.464;-2.566;2022-09-09T05:58:23;4.53;;;1.20;;
10491;SDS011;5293;51.464;-2.566;2022-09-09T06:00:49;6.43;;;1.40;;
10491;SDS011;5293;51.464;-2.566;2022-09-09T06:03:15;3.40;;;1.50;;
10491;SDS011;5293;51.464;-2.566;2022-09-09T06:05:42;4.23;;;1.30;;
10491;SDS011;5293;51.464;-2.566;2022-09-09T06:08:07;4.43;;;1.13;;
10491;SDS011;5293;51.464;-2.566;2022-09-09T06:10:33;4.93;;;1.03;;
10491;SDS011;5293;51.464;-2.566;2022-09-09T06:12:59;5.43;;;1.33;;
10491;SDS011;5293;51.464;-2.566;2022-09-09T06:15:25;1.43;;;1.20;;
10491;SDS011;5293;51.464;-2.566;2022-09-09T06:17:54;5.00;;;1.50;;
10491;SDS011;5293;51.464;-2.566;2022-09-09T06:20:20;5.00;;;1.30;;
10491;SDS011;5293;51.464;-2.566;2022-09-09T06:22:47;3.83;;;1.90;;
10491;SDS011;5293;51.464;-2.566;2022-09-09T06:25:13;4.27;;;1.93;;
10491;SDS011;5293;51.464;-2.566;2022-09-09T06:27:39;3.17;;;1.60;;
10491;SDS011;5293;51.464;-2.566;2022-09-09T06:30:07;2.83;;;1.40;;
10491;SDS011;5293;51.464;-2.566;2022-09-09T06:32:33;6.27;;;1.80;;
10491;SDS011;5293;51.464;-2.566;2022-09-09T06:34:59;7.53;;;3.90;;
10491;SDS011;5293;51.464;-2.566;2022-09-09T06:37:26;8.90;;;2.00;;
10491;SDS011;5293;51.464;-2.566;2022-09-09T06:39:52;6.80;;;2.17;;
10491;SDS011;5293;51.464;-2.566;2022-09-09T06:42:19;5.63;;;2.63;;
10491;SDS011;5293;51.464;-2.566;2022-09-09T06:44:45;2.10;;;1.90;;
10491;SDS011;5293;51.464;-2.566;2022-09-09T06:47:11;4.27;;;2.00;;
10491;SDS011;5293;51.464;-2.566;2022-09-09T06:49:36;4.63;;;1.50;;
10491;SDS011;5293;51.464;-2.566;2022-09-09T06:52:02;6.60;;;2.07;;
10491;SDS011;5293;51.464;-2.566;2022-09-09T06:54:27;2.67;;;1.30;;
10491;SDS011;5293;51.464;-2.566;2022-09-09T06:56:53;3.13;;;1.70;;
10491;SDS011;5293;51.464;-2.566;2022-09-09T06:59:19;7.77;;;1.77;;
10491;SDS011;5293;51.464;-2.566;2022-09-09T07:01:45;3.43;;;1.40;;
10491;SDS011;5293;51.464;-2.566;2022-09-09T07:04:11;3.23;;;1.47;;
10491;SDS011;5293;51.464;-2.566;2022-09-09T07:06:39;4.27;;;1.43;;
10491;SDS011;5293;51.464;-2.566;2022-09-09T07:09:10;5.17;;;1.43;;
10491;SDS011;5293;51.464;-2.566;2022-09-09T07:11:44;4.93;;;1.53;;
10491;SDS011;5293;51.464;-2.566;2022-09-09T07:14:13;2.77;;;1.20;;
10491;SDS011;5293;51.464;-2.566;2022-09-09T07:16:43;4.10;;;1.50;;
10491;SDS011;5293;51.464;-2.566;2022-09-09T07:19:10;1.70;;;1.60;;
10491;SDS011;5293;51.464;-2.566;2022-09-09T07:21:37;3.13;;;1.47;;
10491;SDS011;5293;51.464;-2.566;2022-09-09T07:24:05;3.03;;;1.63;;
10491;SDS011;5293;51.464;-2.566;2022-09-09T07:26:32;5.63;;;1.80;;
10491;SDS011;5293;51.464;-2.566;2022-09-09T07:28:59;3.33;;;1.67;;
10491;SDS011;5293;51.464;-2.566;2022-09-09T07:33:52;3.80;;;1.73;;
10491;SDS011;5293;51.464;-2.566;2022-09-09T07:38:47;4.20;;;1.80;;
10491;SDS011;5293;51.464;-2.566;2022-09-09T07:41:19;3.20;;;1.23;;
10491;SDS011;5293;51.464;-2.566;2022-09-09T07:43:47;1.17;;;1.00;;
10491;SDS011;5293;51.464;-2.566;2022-09-09T07:46:14;4.33;;;1.43;;
10491;SDS011;5293;51.464;-2.566;2022-09-09T07:48:45;2.63;;;1.47;;
10491;SDS011;5293;51.464;-2.566;2022-09-09T07:51:16;4.17;;;1.80;;
10491;SDS011;5293;51.464;-2.566;2022-09-09T07:53:45;3.33;;;1.60;;
10491;SDS011;5293;51.464;-2.566;2022-09-09T07:56:13;6.77;;;1.80;;
10491;SDS011;5293;51.464;-2.566;2022-09-09T07:58:47;3.53;;;1.60;;
10491;SDS011;5293;51.464;-2.566;2022-09-09T08:01:14;5.13;;;1.33;;
10491;SDS011;5293;51.464;-2.566;2022-09-09T08:03:43;3.40;;;1.33;;
10491;SDS011;5293;51.464;-2.566;2022-09-09T08:06:10;3.73;;;1.30;;
10491;SDS011;5293;51.464;-2.566;2022-09-09T08:08:37;3.50;;;1.00;;
10491;SDS011;5293;51.464;-2.566;2022-09-09T08:11:13;2.77;;;0.80;;
10491;SDS011;5293;51.464;-2.566;2022-09-09T08:13:40;1.53;;;1.20;;
10491;SDS011;5293;51.464;-2.566;2022-09-09T08:16:08;1.50;;;1.03;;
10491;SDS011;5293;51.464;-2.566;2022-09-09T08:18:38;3.43;;;1.37;;
10491;SDS011;5293;51.464;-2.566;2022-09-09T08:21:09;1.50;;;1.27;;
10491;SDS011;5293;51.464;-2.566;2022-09-09T08:23:36;2.73;;;1.40;;
10491;SDS011;5293;51.464;-2.566;2022-09-09T08:26:13;3.13;;;1.13;;
10491;SDS011;5293;51.464;-2.566;2022-09-09T08:28:41;1.07;;;0.70;;
10491;SDS011;5293;51.464;-2.566;2022-09-09T08:33:38;2.63;;;0.80;;
10491;SDS011;5293;51.464;-2.566;2022-09-09T08:36:05;2.63;;;1.10;;
10491;SDS011;5293;51.464;-2.566;2022-09-09T08:38:32;2.87;;;0.90;;
10491;SDS011;5293;51.464;-2.566;2022-09-09T08:41:04;1.63;;;1.07;;
10491;SDS011;5293;51.464;-2.566;2022-09-09T08:52:30;4.20;;;1.30;;
10491;SDS011;5293;51.464;-2.566;2022-09-09T08:55:25;2.90;;;0.97;;
10491;SDS011;5293;51.464;-2.566;2022-09-09T08:58:17;2.43;;;1.17;;
10491;SDS011;5293;51.464;-2.566;2022-09-09T09:01:09;1.67;;;0.93;;
10491;SDS011;5293;51.464;-2.566;2022-09-09T09:07:01;2.93;;;0.73;;
10491;SDS011;5293;51.464;-2.566;2022-09-09T09:12:10;2.03;;;1.00;;
10491;SDS011;5293;51.464;-2.566;2022-09-09T09:14:59;0.63;;;0.63;;
10491;SDS011;5293;51.464;-2.566;2022-09-09T09:17:25;3.03;;;1.00;;
10491;SDS011;5293;51.464;-2.566;2022-09-09T09:19:56;2.97;;;0.80;;
10491;SDS011;5293;51.464;-2.566;2022-09-09T09:27:33;2.53;;;0.93;;
10491;SDS011;5293;51.464;-2.566;2022-09-09T09:30:18;4.17;;;0.93;;
10491;SDS011;5293;51.464;-2.566;2022-09-09T09:32:54;5.30;;;1.27;;
10491;SDS011;5293;51.464;-2.566;2022-09-09T09:35:24;1.20;;;0.97;;
10491;SDS011;5293;51.464;-2.566;2022-09-09T09:37:50;1.10;;;0.90;;
10491;SDS011;5293;51.464;-2.566;2022-09-09T09:40:17;1.80;;;1.10;;
10491;SDS011;5293;51.464;-2.566;2022-09-09T09:42:57;2.30;;;1.00;;
10491;SDS011;5293;51.464;-2.566;2022-09-09T09:45:27;2.47;;;1.10;;
10491;SDS011;5293;51.464;-2.566;2022-09-09T09:48:08;1.13;;;0.90;;
10491;SDS011;5293;51.464;-2.566;2022-09-09T09:50:39;1.90;;;1.03;;
10491;SDS011;5293;51.464;-2.566;2022-09-09T09:55:58;1.47;;;0.80;;
10491;SDS011;5293;51.464;-2.566;2022-09-09T09:58:33;3.03;;;1.27;;
10491;SDS011;5293;51.464;-2.566;2022-09-09T10:01:20;2.33;;;0.93;;
10491;SDS011;5293;51.464;-2.566;2022-09-09T10:04:02;3.47;;;0.70;;
10491;SDS011;5293;51.464;-2.566;2022-09-09T10:06:48;1.63;;;1.53;;
10491;SDS011;5293;51.464;-2.566;2022-09-09T10:09:22;0.97;;;0.80;;
10491;SDS011;5293;51.464;-2.566;2022-09-09T10:12:06;2.37;;;0.70;;
10491;SDS011;5293;51.464;-2.566;2022-09-09T10:17:23;4.70;;;1.20;;
10491;SDS011;5293;51.464;-2.566;2022-09-09T10:22:33;2.70;;;0.90;;
10491;SDS011;5293;51.464;-2.566;2022-09-09T10:30:49;1.27;;;0.70;;
10491;SDS011;5293;51.464;-2.566;2022-09-09T10:38:40;2.27;;;0.80;;
10491;SDS011;5293;51.464;-2.566;2022-09-09T10:53:32;2.27;;;1.10;;
10491;SDS011;5293;51.464;-2.566;2022-09-09T10:55:45;1.87;;;1.27;;
10491;SDS011;5293;51.464;-2.566;2022-09-09T10:58:23;2.37;;;1.30;;
10491;SDS011;5293;51.464;-2.566;2022-09-09T11:00:57;2.77;;;2.10;;
10491;SDS011;5293;51.464;-2.566;2022-09-09T11:03:30;1.77;;;1.15;;
10491;SDS011;5293;51.464;-2.566;2022-09-09T11:06:00;3.83;;;1.00;;
10491;SDS011;5293;51.464;-2.566;2022-09-09T11:08:31;2.53;;;1.10;;
10491;SDS011;5293;51.464;-2.566;2022-09-09T11:11:04;2.60;;;1.37;;
10491;SDS011;5293;51.464;-2.566;2022-09-09T11:13:48;2.70;;;1.40;;
10491;SDS011;5293;51.464;-2.566;2022-09-09T11:16:34;3.00;;;1.30;;
10491;SDS011;5293;51.464;-2.566;2022-09-09T11:25:05;2.83;;;1.40;;
10491;SDS011;5293;51.464;-2.566;2022-09-09T11:38:53;1.60;;;1.50;;
10491;SDS011;5293;51.464;-2.566;2022-09-09T11:41:33;4.97;;;1.30;;
10491;SDS011;5293;51.464;-2.566;2022-09-09T11:44:08;3.17;;;1.30;;
10491;SDS011;5293;51.464;-2.566;2022-09-09T11:46:36;3.00;;;1.70;;
10491;SDS011;5293;51.464;-2.566;2022-09-09T11:49:04;2.07;;;1.20;;
10491;SDS011;5293;51.464;-2.566;2022-09-09T11:51:32;1.27;;;1.10;;
10491;SDS011;5293;51.464;-2.566;2022-09-09T11:54:01;3.13;;;1.73;;
10491;SDS011;5293;51.464;-2.566;2022-09-09T11:56:47;3.20;;;0.80;;
10491;SDS011;5293;51.464;-2.566;2022-09-09T11:59:32;1.30;;;1.20;;
10491;SDS011;5293;51.464;-2.566;2022-09-09T12:02:02;1.03;;;1.03;;
10491;SDS011;5293;51.464;-2.566;2022-09-09T12:04:40;2.07;;;1.23;;
10491;SDS011;5293;51.464;-2.566;2022-09-09T12:10:04;1.63;;;1.20;;
10491;SDS011;5293;51.464;-2.566;2022-09-09T12:12:44;3.70;;;1.70;;
10491;SDS011;5293;51.464;-2.566;2022-09-09T12:17:45;6.53;;;2.30;;
10491;SDS011;5293;51.464;-2.566;2022-09-09T12:22:51;3.37;;;1.93;;
10491;SDS011;5293;51.464;-2.566;2022-09-09T12:28:20;5.33;;;2.37;;
10491;SDS011;5293;51.464;-2.566;2022-09-09T12:33:47;4.10;;;1.23;;
10491;SDS011;5293;51.464;-2.566;2022-09-09T12:36:14;4.20;;;2.20;;
10491;SDS011;5293;51.464;-2.566;2022-09-09T12:38:46;4.03;;;1.60;;
10491;SDS011;5293;51.464;-2.566;2022-09-09T12:41:20;2.60;;;1.60;;
10491;SDS011;5293;51.464;-2.566;2022-09-09T12:43:50;2.33;;;1.50;;
10491;SDS011;5293;51.464;-2.566;2022-09-09T12:46:21;2.23;;;1.57;;
10491;SDS011;5293;51.464;-2.566;2022-09-09T12:49:01;3.80;;;1.20;;
10491;SDS011;5293;51.464;-2.566;2022-09-09T12:51:29;2.37;;;1.13;;
10491;SDS011;5293;51.464;-2.566;2022-09-09T12:53:56;2.47;;;1.23;;
10491;SDS011;5293;51.464;-2.566;2022-09-09T12:56:25;5.27;;;1.40;;
10491;SDS011;5293;51.464;-2.566;2022-09-09T12:58:56;3.63;;;1.53;;
10491;SDS011;5293;51.464;-2.566;2022-09-09T13:01:30;2.70;;;1.23;;
10491;SDS011;5293;51.464;-2.566;2022-09-09T13:03:58;1.53;;;1.43;;
10491;SDS011;5293;51.464;-2.566;2022-09-09T13:06:25;3.13;;;1.80;;
10491;SDS011;5293;51.464;-2.566;2022-09-09T13:08:52;1.53;;;1.43;;
10491;SDS011;5293;51.464;-2.566;2022-09-09T13:11:30;3.43;;;1.60;;
10491;SDS011;5293;51.464;-2.566;2022-09-09T13:14:01;3.57;;;2.00;;
10491;SDS011;5293;51.464;-2.566;2022-09-09T13:19:07;4.67;;;2.30;;
10491;SDS011;5293;51.464;-2.566;2022-09-09T13:21:35;4.83;;;2.20;;
10491;SDS011;5293;51.464;-2.566;2022-09-09T13:24:03;6.13;;;2.57;;
10491;SDS011;5293;51.464;-2.566;2022-09-09T13:26:54;6.30;;;2.57;;
10491;SDS011;5293;51.464;-2.566;2022-09-09T13:29:27;2.77;;;2.20;;
10491;SDS011;5293;51.464;-2.566;2022-09-09T13:31:53;3.73;;;2.20;;
10491;SDS011;5293;51.464;-2.566;2022-09-09T13:34:28;6.17;;;2.23;;
10491;SDS011;5293;51.464;-2.566;2022-09-09T13:36:59;3.67;;;2.37;;
10491;SDS011;5293;51.464;-2.566;2022-09-09T13:39:36;4.43;;;2.67;;
10491;SDS011;5293;51.464;-2.566;2022-09-09T13:42:02;4.53;;;2.43;;
10491;SDS011;5293;51.464;-2.566;2022-09-09T13:44:30;4.47;;;2.57;;
10491;SDS011;5293;51.464;-2.566;2022-09-09T13:47:04;4.53;;;2.23;;
10491;SDS011;5293;51.464;-2.566;2022-09-09T13:49:50;3.67;;;2.00;;
10491;SDS011;5293;51.464;-2.566;2022-09-09T13:52:16;3.20;;;1.90;;
10491;SDS011;5293;51.464;-2.566;2022-09-09T13:54:47;2.63;;;1.63;;
10491;SDS011;5293;51.464;-2.566;2022-09-09T13:59:43;2.43;;;1.47;;
10491;SDS011;5293;51.464;-2.566;2022-09-09T14:02:10;5.90;;;1.83;;
10491;SDS011;5293;51.464;-2.566;2022-09-09T14:04:35;2.00;;;1.73;;
10491;SDS011;5293;51.464;-2.566;2022-09-09T14:07:01;8.73;;;2.50;;
10491;SDS011;5293;51.464;-2.566;2022-09-09T14:09:28;3.17;;;1.63;;
10491;SDS011;5293;51.464;-2.566;2022-09-09T14:11:53;4.60;;;2.00;;
10491;SDS011;5293;51.464;-2.566;2022-09-09T14:14:22;5.60;;;2.27;;
10491;SDS011;5293;51.464;-2.566;2022-09-09T14:16:48;4.73;;;2.50;;
10491;SDS011;5293;51.464;-2.566;2022-09-09T14:19:13;4.60;;;2.27;;
10491;SDS011;5293;51.464;-2.566;2022-09-09T14:21:39;5.17;;;2.30;;
10491;SDS011;5293;51.464;-2.566;2022-09-09T14:24:05;4.67;;;2.80;;
10491;SDS011;5293;51.464;-2.566;2022-09-09T14:26:31;4.77;;;2.40;;
10491;SDS011;5293;51.464;-2.566;2022-09-09T14:28:57;4.50;;;2.30;;
10491;SDS011;5293;51.464;-2.566;2022-09-09T14:31:23;2.63;;;1.77;;
10491;SDS011;5293;51.464;-2.566;2022-09-09T14:33:49;1.40;;;1.30;;
10491;SDS011;5293;51.464;-2.566;2022-09-09T14:36:15;2.47;;;1.40;;
10491;SDS011;5293;51.464;-2.566;2022-09-09T14:38:42;1.60;;;1.50;;
10491;SDS011;5293;51.464;-2.566;2022-09-09T14:41:14;1.30;;;1.20;;
10491;SDS011;5293;51.464;-2.566;2022-09-09T14:43:45;1.90;;;1.77;;
10491;SDS011;5293;51.464;-2.566;2022-09-09T14:46:12;2.83;;;2.00;;
10491;SDS011;5293;51.464;-2.566;2022-09-09T14:48:39;3.57;;;2.13;;
10491;SDS011;5293;51.464;-2.566;2022-09-09T14:51:12;2.07;;;1.80;;
10491;SDS011;5293;51.464;-2.566;2022-09-09T14:53:41;3.53;;;2.23;;
10491;SDS011;5293;51.464;-2.566;2022-09-09T14:56:09;11.17;;;2.50;;
10491;SDS011;5293;51.464;-2.566;2022-09-09T14:58:37;2.90;;;2.07;;
10491;SDS011;5293;51.464;-2.566;2022-09-09T15:01:04;1.80;;;1.70;;
10491;SDS011;5293;51.464;-2.566;2022-09-09T15:03:30;1.87;;;1.60;;
10491;SDS011;5293;51.464;-2.566;2022-09-09T15:05:56;2.10;;;1.50;;
10491;SDS011;5293;51.464;-2.566;2022-09-09T15:08:23;2.93;;;1.50;;
10491;SDS011;5293;51.464;-2.566;2022-09-09T15:10:51;1.50;;;1.40;;
10491;SDS011;5293;51.464;-2.566;2022-09-09T15:13:24;2.47;;;1.30;;
10491;SDS011;5293;51.464;-2.566;2022-09-09T15:15:50;1.87;;;1.23;;
10491;SDS011;5293;51.464;-2.566;2022-09-09T15:18:16;3.27;;;1.07;;
10491;SDS011;5293;51.464;-2.566;2022-09-09T15:20:44;1.00;;;1.00;;
10491;SDS011;5293;51.464;-2.566;2022-09-09T15:23:11;1.20;;;1.10;;
10491;SDS011;5293;51.464;-2.566;2022-09-09T15:25:37;1.43;;;1.03;;
10491;SDS011;5293;51.464;-2.566;2022-09-09T15:28:03;1.90;;;1.30;;
10491;SDS011;5293;51.464;-2.566;2022-09-09T15:30:29;3.97;;;1.40;;
10491;SDS011;5293;51.464;-2.566;2022-09-09T15:32:54;3.17;;;1.40;;
10491;SDS011;5293;51.464;-2.566;2022-09-09T15:35:20;3.93;;;1.83;;
10491;SDS011;5293;51.464;-2.566;2022-09-09T15:37:45;2.20;;;1.30;;
10491;SDS011;5293;51.464;-2.566;2022-09-09T15:40:11;4.43;;;1.73;;
10491;SDS011;5293;51.464;-2.566;2022-09-09T15:42:37;1.83;;;1.23;;
10491;SDS011;5293;51.464;-2.566;2022-09-09T15:45:03;1.90;;;1.70;;
10491;SDS011;5293;51.464;-2.566;2022-09-09T15:47:30;2.90;;;1.30;;
10491;SDS011;5293;51.464;-2.566;2022-09-09T15:49:58;3.13;;;1.60;;
10491;SDS011;5293;51.464;-2.566;2022-09-09T15:52:23;2.70;;;1.60;;
10491;SDS011;5293;51.464;-2.566;2022-09-09T15:54:49;2.77;;;1.87;;
10491;SDS011;5293;51.464;-2.566;2022-09-09T15:57:15;5.63;;;1.60;;
10491;SDS011;5293;51.464;-2.566;2022-09-09T15:59:40;4.70;;;1.43;;
10491;SDS011;5293;51.464;-2.566;2022-09-09T16:02:06;4.10;;;1.30;;
10491;SDS011;5293;51.464;-2.566;2022-09-09T16:04:32;3.63;;;1.60;;
10491;SDS011;5293;51.464;-2.566;2022-09-09T16:07:00;3.23;;;1.10;;
10491;SDS011;5293;51.464;-2.566;2022-09-09T16:09:28;2.23;;;1.20;;
10491;SDS011;5293;51.464;-2.566;2022-09-09T16:11:58;2.13;;;1.23;;
10491;SDS011;5293;51.464;-2.566;2022-09-09T16:14:31;4.67;;;1.40;;
10491;SDS011;5293;51.464;-2.566;2022-09-09T16:17:00;2.87;;;1.37;;
10491;SDS011;5293;51.464;-2.566;2022-09-09T16:19:26;1.00;;;0.90;;
10491;SDS011;5293;51.464;-2.566;2022-09-09T16:21:52;2.60;;;1.30;;
10491;SDS011;5293;51.464;-2.566;2022-09-09T16:24:18;4.57;;;1.33;;
10491;SDS011;5293;51.464;-2.566;2022-09-09T16:26:46;3.33;;;1.33;;
10491;SDS011;5293;51.464;-2.566;2022-09-09T16:29:15;5.33;;;1.50;;
10491;SDS011;5293;51.464;-2.566;2022-09-09T16:31:42;2.67;;;1.50;;
10491;SDS011;5293;51.464;-2.566;2022-09-09T16:34:09;1.73;;;1.10;;
10491;SDS011;5293;51.464;-2.566;2022-09-09T16:36:36;6.07;;;1.40;;
10491;SDS011;5293;51.464;-2.566;2022-09-09T16:39:05;5.90;;;3.77;;
10491;SDS011;5293;51.464;-2.566;2022-09-09T16:41:34;2.90;;;1.20;;
10491;SDS011;5293;51.464;-2.566;2022-09-09T16:44:01;4.50;;;1.50;;
10491;SDS011;5293;51.464;-2.566;2022-09-09T16:46:29;1.30;;;1.07;;
10491;SDS011;5293;51.464;-2.566;2022-09-09T16:48:57;3.47;;;1.30;;
10491;SDS011;5293;51.464;-2.566;2022-09-09T16:51:25;3.30;;;1.40;;
10491;SDS011;5293;51.464;-2.566;2022-09-09T16:53:56;1.93;;;1.27;;
10491;SDS011;5293;51.464;-2.566;2022-09-09T16:56:24;4.40;;;1.50;;
10491;SDS011;5293;51.464;-2.566;2022-09-09T16:58:52;4.27;;;1.23;;
10491;SDS011;5293;51.464;-2.566;2022-09-09T17:01:23;2.10;;;1.20;;
10491;SDS011;5293;51.464;-2.566;2022-09-09T17:03:55;2.27;;;1.50;;
10491;SDS011;5293;51.464;-2.566;2022-09-09T17:06:22;2.97;;;1.50;;
10491;SDS011;5293;51.464;-2.566;2022-09-09T17:08:53;2.10;;;1.37;;
10491;SDS011;5293;51.464;-2.566;2022-09-09T17:11:20;2.93;;;1.60;;
10491;SDS011;5293;51.464;-2.566;2022-09-09T17:13:46;2.13;;;1.60;;
10491;SDS011;5293;51.464;-2.566;2022-09-09T17:16:13;2.60;;;1.50;;
10491;SDS011;5293;51.464;-2.566;2022-09-09T17:18:42;6.17;;;2.93;;
10491;SDS011;5293;51.464;-2.566;2022-09-09T17:21:09;5.70;;;2.27;;
10491;SDS011;5293;51.464;-2.566;2022-09-09T17:23:39;6.27;;;2.77;;
10491;SDS011;5293;51.464;-2.566;2022-09-09T17:26:07;4.70;;;2.33;;
10491;SDS011;5293;51.464;-2.566;2022-09-09T17:28:36;6.67;;;3.10;;
10491;SDS011;5293;51.464;-2.566;2022-09-09T17:31:03;5.97;;;2.70;;
10491;SDS011;5293;51.464;-2.566;2022-09-09T17:33:31;5.43;;;2.30;;